sensor_id;sensor_type;location;lat;lon;timestamp;P1;durP1;ratioP1;P2;durP2;ratioP2
6121;SDS011;3091;51.506;7.672;2023-11-19T00:00:47;24.40;;;22.90;;
6121;SDS011;3091;51.506;7.672;2023-11-19T00:03:13;23.30;;;21.90;;
6121;SDS011;3091;51.506;7.672;2023-11-19T00:05:42;23.00;;;21.60;;
6121;SDS011;3091;51.506;7.672;2023-11-19T00:08:08;23.07;;;21.60;;
6121;SDS011;3091;51.506;7.672;2023-11-19T00:10:34;24.10;;;22.60;;
6121;SDS011;3091;51.506;7.672;2023-11-19T00:13:00;25.37;;;23.93;;
6121;SDS011;3091;51.506;7.672;2023-11-19T00:15:27;25.47;;;23.97;;
6121;SDS011;3091;51.506;7.672;2023-11-19T00:17:54;25.47;;;23.97;;
6121;SDS011;3091;51.506;7.672;2023-11-19T00:20:20;25.70;;;24.20;;
6121;SDS011;3091;51.506;7.672;2023-11-19T00:22:49;24.87;;;23.37;;
6121;SDS011;3091;51.506;7.672;2023-11-19T00:25:18;25.07;;;23.47;;
6121;SDS011;3091;51.506;7.672;2023-11-19T00:27:47;24.60;;;23.00;;
6121;SDS011;3091;51.506;7.672;2023-11-19T00:30:14;25.77;;;23.97;;
6121;SDS011;3091;51.506;7.672;2023-11-19T00:32:40;29.17;;;27.43;;
6121;SDS011;3091;51.506;7.672;2023-11-19T00:35:07;27.90;;;26.20;;
6121;SDS011;3091;51.506;7.672;2023-11-19T00:37:33;28.17;;;26.47;;
6121;SDS011;3091;51.506;7.672;2023-11-19T00:39:59;27.00;;;25.40;;
6121;SDS011;3091;51.506;7.672;2023-11-19T00:42:25;28.80;;;27.10;;
6121;SDS011;3091;51.506;7.672;2023-11-19T00:44:52;28.10;;;26.40;;
6121;SDS011;3091;51.506;7.672;2023-11-19T00:47:18;26.70;;;24.90;;
6121;SDS011;3091;51.506;7.672;2023-11-19T00:49:47;25.90;;;24.20;;
6121;SDS011;3091;51.506;7.672;2023-11-19T00:52:16;27.10;;;25.30;;
6121;SDS011;3091;51.506;7.672;2023-11-19T00:54:42;27.70;;;25.90;;
6121;SDS011;3091;51.506;7.672;2023-11-19T00:57:11;28.33;;;26.53;;
6121;SDS011;3091;51.506;7.672;2023-11-19T00:59:37;29.53;;;27.80;;
6121;SDS011;3091;51.506;7.672;2023-11-19T01:02:03;28.73;;;27.03;;
6121;SDS011;3091;51.506;7.672;2023-11-19T01:04:34;28.90;;;27.20;;
6121;SDS011;3091;51.506;7.672;2023-11-19T01:07:06;28.60;;;26.90;;
6121;SDS011;3091;51.506;7.672;2023-11-19T01:09:34;28.20;;;26.50;;
6121;SDS011;3091;51.506;7.672;2023-11-19T01:12:03;28.60;;;26.90;;
6121;SDS011;3091;51.506;7.672;2023-11-19T01:14:32;27.10;;;25.30;;
6121;SDS011;3091;51.506;7.672;2023-11-19T01:16:58;26.80;;;25.00;;
6121;SDS011;3091;51.506;7.672;2023-11-19T01:19:24;25.87;;;24.17;;
6121;SDS011;3091;51.506;7.672;2023-11-19T01:21:52;25.80;;;24.10;;
6121;SDS011;3091;51.506;7.672;2023-11-19T01:24:19;25.80;;;24.00;;
6121;SDS011;3091;51.506;7.672;2023-11-19T01:26:45;26.13;;;24.43;;
6121;SDS011;3091;51.506;7.672;2023-11-19T01:29:12;24.77;;;23.17;;
6121;SDS011;3091;51.506;7.672;2023-11-19T01:31:41;25.53;;;23.83;;
6121;SDS011;3091;51.506;7.672;2023-11-19T01:34:07;25.40;;;23.80;;
6121;SDS011;3091;51.506;7.672;2023-11-19T01:36:33;26.80;;;25.00;;
6121;SDS011;3091;51.506;7.672;2023-11-19T01:38:59;26.30;;;24.60;;
6121;SDS011;3091;51.506;7.672;2023-11-19T01:41:26;26.90;;;25.10;;
6121;SDS011;3091;51.506;7.672;2023-11-19T01:43:52;31.10;;;29.00;;
6121;SDS011;3091;51.506;7.672;2023-11-19T01:46:21;32.13;;;29.93;;
6121;SDS011;3091;51.506;7.672;2023-11-19T01:48:47;32.13;;;29.50;;
6121;SDS011;3091;51.506;7.672;2023-11-19T01:51:13;29.43;;;27.40;;
6121;SDS011;3091;51.506;7.672;2023-11-19T01:53:41;26.60;;;24.80;;
6121;SDS011;3091;51.506;7.672;2023-11-19T01:56:08;27.67;;;25.77;;
6121;SDS011;3091;51.506;7.672;2023-11-19T01:58:35;28.30;;;26.30;;
6121;SDS011;3091;51.506;7.672;2023-11-19T02:01:02;30.20;;;28.10;;
6121;SDS011;3091;51.506;7.672;2023-11-19T02:03:32;29.80;;;27.70;;
6121;SDS011;3091;51.506;7.672;2023-11-19T02:05:59;26.77;;;24.97;;
6121;SDS011;3091;51.506;7.672;2023-11-19T02:08:25;24.90;;;23.20;;
6121;SDS011;3091;51.506;7.672;2023-11-19T02:10:51;26.00;;;24.30;;
6121;SDS011;3091;51.506;7.672;2023-11-19T02:13:22;25.40;;;23.70;;
6121;SDS011;3091;51.506;7.672;2023-11-19T02:15:51;25.00;;;23.40;;
6121;SDS011;3091;51.506;7.672;2023-11-19T02:18:22;24.90;;;23.20;;
6121;SDS011;3091;51.506;7.672;2023-11-19T02:20:51;24.03;;;22.43;;
6121;SDS011;3091;51.506;7.672;2023-11-19T02:23:18;25.13;;;23.43;;
6121;SDS011;3091;51.506;7.672;2023-11-19T02:25:47;24.60;;;23.00;;
6121;SDS011;3091;51.506;7.672;2023-11-19T02:28:14;25.10;;;23.30;;
6121;SDS011;3091;51.506;7.672;2023-11-19T02:30:41;24.93;;;23.23;;
6121;SDS011;3091;51.506;7.672;2023-11-19T02:33:07;24.70;;;23.10;;
6121;SDS011;3091;51.506;7.672;2023-11-19T02:35:33;24.80;;;23.13;;
6121;SDS011;3091;51.506;7.672;2023-11-19T02:37:59;24.17;;;22.57;;
6121;SDS011;3091;51.506;7.672;2023-11-19T02:40:26;23.00;;;21.50;;
6121;SDS011;3091;51.506;7.672;2023-11-19T02:42:52;24.20;;;22.60;;
6121;SDS011;3091;51.506;7.672;2023-11-19T02:45:20;25.43;;;23.73;;
6121;SDS011;3091;51.506;7.672;2023-11-19T02:47:47;26.00;;;24.27;;
6121;SDS011;3091;51.506;7.672;2023-11-19T02:50:13;24.67;;;23.07;;
6121;SDS011;3091;51.506;7.672;2023-11-19T02:52:43;27.40;;;25.80;;
6121;SDS011;3091;51.506;7.672;2023-11-19T02:55:12;27.60;;;25.60;;
6121;SDS011;3091;51.506;7.672;2023-11-19T02:57:39;24.10;;;22.50;;
6121;SDS011;3091;51.506;7.672;2023-11-19T03:00:16;24.20;;;22.60;;
6121;SDS011;3091;51.506;7.672;2023-11-19T03:02:43;25.17;;;23.07;;
6121;SDS011;3091;51.506;7.672;2023-11-19T03:05:14;26.50;;;24.70;;
6121;SDS011;3091;51.506;7.672;2023-11-19T03:07:44;27.60;;;25.80;;
6121;SDS011;3091;51.506;7.672;2023-11-19T03:10:10;26.20;;;24.50;;
6121;SDS011;3091;51.506;7.672;2023-11-19T03:12:40;26.10;;;24.20;;
6121;SDS011;3091;51.506;7.672;2023-11-19T03:15:06;26.27;;;24.50;;
6121;SDS011;3091;51.506;7.672;2023-11-19T03:17:35;26.33;;;24.53;;
6121;SDS011;3091;51.506;7.672;2023-11-19T03:20:01;25.07;;;23.43;;
6121;SDS011;3091;51.506;7.672;2023-11-19T03:22:28;25.70;;;24.00;;
6121;SDS011;3091;51.506;7.672;2023-11-19T03:24:54;25.83;;;24.13;;
6121;SDS011;3091;51.506;7.672;2023-11-19T03:27:23;26.30;;;24.60;;
6121;SDS011;3091;51.506;7.672;2023-11-19T03:29:49;26.73;;;25.03;;
6121;SDS011;3091;51.506;7.672;2023-11-19T03:32:15;26.00;;;24.30;;
6121;SDS011;3091;51.506;7.672;2023-11-19T03:34:41;26.27;;;24.57;;
6121;SDS011;3091;51.506;7.672;2023-11-19T03:37:07;25.53;;;23.73;;
6121;SDS011;3091;51.506;7.672;2023-11-19T03:39:33;30.27;;;28.17;;
6121;SDS011;3091;51.506;7.672;2023-11-19T03:41:59;38.50;;;35.90;;
6121;SDS011;3091;51.506;7.672;2023-11-19T03:44:26;40.73;;;37.90;;
6121;SDS011;3091;51.506;7.672;2023-11-19T03:46:55;43.97;;;40.70;;
6121;SDS011;3091;51.506;7.672;2023-11-19T03:49:21;44.87;;;41.93;;
6121;SDS011;3091;51.506;7.672;2023-11-19T03:51:49;45.77;;;42.77;;
6121;SDS011;3091;51.506;7.672;2023-11-19T03:54:15;45.77;;;42.77;;
6121;SDS011;3091;51.506;7.672;2023-11-19T03:56:41;55.13;;;51.53;;
6121;SDS011;3091;51.506;7.672;2023-11-19T03:59:07;51.57;;;48.17;;
6121;SDS011;3091;51.506;7.672;2023-11-19T04:01:35;55.03;;;51.43;;
6121;SDS011;3091;51.506;7.672;2023-11-19T04:04:02;52.67;;;49.17;;
6121;SDS011;3091;51.506;7.672;2023-11-19T04:06:28;50.80;;;47.50;;
6121;SDS011;3091;51.506;7.672;2023-11-19T04:08:54;48.23;;;44.93;;
6121;SDS011;3091;51.506;7.672;2023-11-19T04:11:20;46.73;;;43.43;;
6121;SDS011;3091;51.506;7.672;2023-11-19T04:13:46;44.60;;;41.47;;
6121;SDS011;3091;51.506;7.672;2023-11-19T04:16:12;45.93;;;42.63;;
6121;SDS011;3091;51.506;7.672;2023-11-19T04:18:39;49.47;;;46.27;;
6121;SDS011;3091;51.506;7.672;2023-11-19T04:21:08;48.93;;;45.20;;
6121;SDS011;3091;51.506;7.672;2023-11-19T04:23:34;50.30;;;46.80;;
6121;SDS011;3091;51.506;7.672;2023-11-19T04:26:03;47.07;;;43.77;;
6121;SDS011;3091;51.506;7.672;2023-11-19T04:28:30;51.80;;;48.33;;
6121;SDS011;3091;51.506;7.672;2023-11-19T04:30:56;50.90;;;47.70;;
6121;SDS011;3091;51.506;7.672;2023-11-19T04:33:22;50.17;;;46.97;;
6121;SDS011;3091;51.506;7.672;2023-11-19T04:35:48;47.47;;;44.37;;
6121;SDS011;3091;51.506;7.672;2023-11-19T04:38:14;48.17;;;44.50;;
6121;SDS011;3091;51.506;7.672;2023-11-19T04:40:40;49.50;;;46.10;;
6121;SDS011;3091;51.506;7.672;2023-11-19T04:43:06;51.80;;;48.50;;
6121;SDS011;3091;51.506;7.672;2023-11-19T04:45:33;55.27;;;50.93;;
6121;SDS011;3091;51.506;7.672;2023-11-19T04:47:59;50.93;;;47.47;;
6121;SDS011;3091;51.506;7.672;2023-11-19T04:50:25;54.60;;;51.33;;
6121;SDS011;3091;51.506;7.672;2023-11-19T04:52:54;50.20;;;47.40;;
6121;SDS011;3091;51.506;7.672;2023-11-19T04:55:20;38.37;;;36.07;;
6121;SDS011;3091;51.506;7.672;2023-11-19T04:57:47;36.73;;;34.43;;
6121;SDS011;3091;51.506;7.672;2023-11-19T05:00:13;37.63;;;35.30;;
6121;SDS011;3091;51.506;7.672;2023-11-19T05:02:39;36.40;;;34.00;;
6121;SDS011;3091;51.506;7.672;2023-11-19T05:05:05;32.80;;;30.90;;
6121;SDS011;3091;51.506;7.672;2023-11-19T05:07:32;36.07;;;33.67;;
6121;SDS011;3091;51.506;7.672;2023-11-19T05:09:58;32.40;;;30.47;;
6121;SDS011;3091;51.506;7.672;2023-11-19T05:12:25;32.00;;;30.10;;
6121;SDS011;3091;51.506;7.672;2023-11-19T05:14:51;30.03;;;28.23;;
6121;SDS011;3091;51.506;7.672;2023-11-19T05:17:20;29.87;;;28.07;;
6121;SDS011;3091;51.506;7.672;2023-11-19T05:19:46;28.27;;;26.57;;
6121;SDS011;3091;51.506;7.672;2023-11-19T05:22:13;29.07;;;27.20;;
6121;SDS011;3091;51.506;7.672;2023-11-19T05:24:39;27.97;;;25.90;;
6121;SDS011;3091;51.506;7.672;2023-11-19T05:27:06;25.00;;;23.50;;
6121;SDS011;3091;51.506;7.672;2023-11-19T05:29:33;22.60;;;21.20;;
6121;SDS011;3091;51.506;7.672;2023-11-19T05:31:59;20.50;;;19.03;;
6121;SDS011;3091;51.506;7.672;2023-11-19T05:34:25;19.07;;;18.07;;
6121;SDS011;3091;51.506;7.672;2023-11-19T05:36:51;18.90;;;17.60;;
6121;SDS011;3091;51.506;7.672;2023-11-19T05:39:17;19.03;;;17.60;;
6121;SDS011;3091;51.506;7.672;2023-11-19T05:41:45;19.03;;;17.60;;
6121;SDS011;3091;51.506;7.672;2023-11-19T05:44:11;20.00;;;18.33;;
6121;SDS011;3091;51.506;7.672;2023-11-19T05:46:37;17.20;;;16.20;;
6121;SDS011;3091;51.506;7.672;2023-11-19T05:49:07;16.87;;;16.00;;
6121;SDS011;3091;51.506;7.672;2023-11-19T05:51:36;19.23;;;17.77;;
6121;SDS011;3091;51.506;7.672;2023-11-19T05:54:02;18.97;;;17.40;;
6121;SDS011;3091;51.506;7.672;2023-11-19T05:56:28;17.77;;;16.87;;
6121;SDS011;3091;51.506;7.672;2023-11-19T05:58:57;20.67;;;18.33;;
6121;SDS011;3091;51.506;7.672;2023-11-19T06:01:25;18.40;;;17.20;;
6121;SDS011;3091;51.506;7.672;2023-11-19T06:03:51;17.73;;;16.40;;
6121;SDS011;3091;51.506;7.672;2023-11-19T06:06:18;20.07;;;17.67;;
6121;SDS011;3091;51.506;7.672;2023-11-19T06:08:44;15.70;;;15.00;;
6121;SDS011;3091;51.506;7.672;2023-11-19T06:11:10;18.43;;;17.23;;
6121;SDS011;3091;51.506;7.672;2023-11-19T06:13:46;18.67;;;17.10;;
6121;SDS011;3091;51.506;7.672;2023-11-19T06:16:16;16.70;;;15.90;;
6121;SDS011;3091;51.506;7.672;2023-11-19T06:18:42;18.53;;;17.40;;
6121;SDS011;3091;51.506;7.672;2023-11-19T06:21:09;18.00;;;16.73;;
6121;SDS011;3091;51.506;7.672;2023-11-19T06:23:35;17.00;;;15.90;;
6121;SDS011;3091;51.506;7.672;2023-11-19T06:26:01;15.67;;;14.83;;
6121;SDS011;3091;51.506;7.672;2023-11-19T06:28:27;15.60;;;14.80;;
6121;SDS011;3091;51.506;7.672;2023-11-19T06:30:53;16.00;;;15.20;;
6121;SDS011;3091;51.506;7.672;2023-11-19T06:33:21;15.33;;;14.50;;
6121;SDS011;3091;51.506;7.672;2023-11-19T06:35:47;16.60;;;15.27;;
6121;SDS011;3091;51.506;7.672;2023-11-19T06:38:14;46.70;;;17.30;;
6121;SDS011;3091;51.506;7.672;2023-11-19T06:40:40;16.17;;;15.37;;
6121;SDS011;3091;51.506;7.672;2023-11-19T06:43:06;16.00;;;15.30;;
6121;SDS011;3091;51.506;7.672;2023-11-19T06:45:35;15.40;;;14.80;;
6121;SDS011;3091;51.506;7.672;2023-11-19T06:48:02;16.20;;;15.33;;
6121;SDS011;3091;51.506;7.672;2023-11-19T06:50:29;16.03;;;15.33;;
6121;SDS011;3091;51.506;7.672;2023-11-19T06:52:55;15.30;;;14.40;;
6121;SDS011;3091;51.506;7.672;2023-11-19T06:55:21;15.93;;;15.23;;
6121;SDS011;3091;51.506;7.672;2023-11-19T06:57:47;15.00;;;14.40;;
6121;SDS011;3091;51.506;7.672;2023-11-19T07:00:13;15.10;;;14.40;;
6121;SDS011;3091;51.506;7.672;2023-11-19T07:02:39;15.03;;;14.43;;
6121;SDS011;3091;51.506;7.672;2023-11-19T07:05:05;15.77;;;14.97;;
6121;SDS011;3091;51.506;7.672;2023-11-19T07:07:33;18.50;;;17.80;;
6121;SDS011;3091;51.506;7.672;2023-11-19T07:10:00;19.97;;;18.50;;
6121;SDS011;3091;51.506;7.672;2023-11-19T07:12:27;19.70;;;18.67;;
6121;SDS011;3091;51.506;7.672;2023-11-19T07:14:53;18.40;;;17.50;;
6121;SDS011;3091;51.506;7.672;2023-11-19T07:17:20;18.37;;;17.47;;
6121;SDS011;3091;51.506;7.672;2023-11-19T07:19:46;18.70;;;17.80;;
6121;SDS011;3091;51.506;7.672;2023-11-19T07:22:13;19.23;;;18.20;;
6121;SDS011;3091;51.506;7.672;2023-11-19T07:24:40;19.97;;;18.53;;
6121;SDS011;3091;51.506;7.672;2023-11-19T07:27:06;18.53;;;17.87;;
6121;SDS011;3091;51.506;7.672;2023-11-19T07:29:34;19.53;;;18.63;;
6121;SDS011;3091;51.506;7.672;2023-11-19T07:32:00;20.03;;;19.20;;
6121;SDS011;3091;51.506;7.672;2023-11-19T07:34:27;17.73;;;17.13;;
6121;SDS011;3091;51.506;7.672;2023-11-19T07:36:54;19.23;;;18.47;;
6121;SDS011;3091;51.506;7.672;2023-11-19T07:39:24;18.57;;;17.80;;
6121;SDS011;3091;51.506;7.672;2023-11-19T07:41:50;19.40;;;18.40;;
6121;SDS011;3091;51.506;7.672;2023-11-19T07:44:16;18.50;;;17.80;;
6121;SDS011;3091;51.506;7.672;2023-11-19T07:46:42;19.27;;;18.23;;
6121;SDS011;3091;51.506;7.672;2023-11-19T07:49:10;18.10;;;17.50;;
6121;SDS011;3091;51.506;7.672;2023-11-19T07:51:36;18.20;;;17.60;;
6121;SDS011;3091;51.506;7.672;2023-11-19T07:54:02;18.40;;;17.80;;
6121;SDS011;3091;51.506;7.672;2023-11-19T07:56:29;18.53;;;17.87;;
6121;SDS011;3091;51.506;7.672;2023-11-19T07:58:55;18.13;;;17.30;;
6121;SDS011;3091;51.506;7.672;2023-11-19T08:01:23;18.13;;;17.20;;
6121;SDS011;3091;51.506;7.672;2023-11-19T08:03:49;17.17;;;16.57;;
6121;SDS011;3091;51.506;7.672;2023-11-19T08:06:15;17.73;;;16.90;;
6121;SDS011;3091;51.506;7.672;2023-11-19T08:08:41;18.67;;;17.37;;
6121;SDS011;3091;51.506;7.672;2023-11-19T08:11:08;18.07;;;17.37;;
6121;SDS011;3091;51.506;7.672;2023-11-19T08:13:36;17.77;;;16.73;;
6121;SDS011;3091;51.506;7.672;2023-11-19T08:16:02;18.60;;;17.90;;
6121;SDS011;3091;51.506;7.672;2023-11-19T08:18:29;18.80;;;18.00;;
6121;SDS011;3091;51.506;7.672;2023-11-19T08:20:55;18.50;;;17.80;;
6121;SDS011;3091;51.506;7.672;2023-11-19T08:23:23;21.47;;;19.80;;
6121;SDS011;3091;51.506;7.672;2023-11-19T08:25:50;19.90;;;18.37;;
6121;SDS011;3091;51.506;7.672;2023-11-19T08:28:20;18.30;;;17.60;;
6121;SDS011;3091;51.506;7.672;2023-11-19T08:30:46;18.10;;;17.40;;
6121;SDS011;3091;51.506;7.672;2023-11-19T08:33:12;18.17;;;17.47;;
6121;SDS011;3091;51.506;7.672;2023-11-19T08:35:40;20.17;;;19.00;;
6121;SDS011;3091;51.506;7.672;2023-11-19T08:38:06;20.43;;;18.87;;
6121;SDS011;3091;51.506;7.672;2023-11-19T08:40:32;18.80;;;17.83;;
6121;SDS011;3091;51.506;7.672;2023-11-19T08:42:58;19.90;;;19.10;;
6121;SDS011;3091;51.506;7.672;2023-11-19T08:45:24;21.30;;;19.63;;
6121;SDS011;3091;51.506;7.672;2023-11-19T08:47:51;18.57;;;17.80;;
6121;SDS011;3091;51.506;7.672;2023-11-19T08:50:17;19.17;;;17.83;;
6121;SDS011;3091;51.506;7.672;2023-11-19T08:52:43;19.30;;;17.97;;
6121;SDS011;3091;51.506;7.672;2023-11-19T08:55:09;19.40;;;17.70;;
6121;SDS011;3091;51.506;7.672;2023-11-19T08:57:36;18.20;;;17.50;;
6121;SDS011;3091;51.506;7.672;2023-11-19T09:00:03;23.03;;;19.20;;
6121;SDS011;3091;51.506;7.672;2023-11-19T09:02:32;19.50;;;18.33;;
6121;SDS011;3091;51.506;7.672;2023-11-19T09:04:59;17.83;;;17.13;;
6121;SDS011;3091;51.506;7.672;2023-11-19T09:07:25;17.70;;;16.90;;
6121;SDS011;3091;51.506;7.672;2023-11-19T09:09:51;23.23;;;18.13;;
6121;SDS011;3091;51.506;7.672;2023-11-19T09:12:17;19.60;;;18.60;;
6121;SDS011;3091;51.506;7.672;2023-11-19T09:14:43;17.27;;;16.67;;
6121;SDS011;3091;51.506;7.672;2023-11-19T09:17:10;17.10;;;16.50;;
6121;SDS011;3091;51.506;7.672;2023-11-19T09:19:36;16.90;;;16.20;;
6121;SDS011;3091;51.506;7.672;2023-11-19T09:22:02;16.87;;;16.27;;
6121;SDS011;3091;51.506;7.672;2023-11-19T09:24:29;20.63;;;19.33;;
6121;SDS011;3091;51.506;7.672;2023-11-19T09:26:55;18.07;;;17.27;;
6121;SDS011;3091;51.506;7.672;2023-11-19T09:29:21;16.10;;;15.60;;
6121;SDS011;3091;51.506;7.672;2023-11-19T09:31:47;20.30;;;18.40;;
6121;SDS011;3091;51.506;7.672;2023-11-19T09:34:13;18.73;;;17.80;;
6121;SDS011;3091;51.506;7.672;2023-11-19T09:36:39;17.20;;;16.60;;
6121;SDS011;3091;51.506;7.672;2023-11-19T09:39:09;17.90;;;17.10;;
6121;SDS011;3091;51.506;7.672;2023-11-19T09:41:52;17.17;;;16.57;;
6121;SDS011;3091;51.506;7.672;2023-11-19T09:44:20;17.67;;;16.97;;
6121;SDS011;3091;51.506;7.672;2023-11-19T09:46:46;17.43;;;16.60;;
6121;SDS011;3091;51.506;7.672;2023-11-19T09:49:16;19.23;;;18.30;;
6121;SDS011;3091;51.506;7.672;2023-11-19T09:51:44;21.10;;;19.20;;
6121;SDS011;3091;51.506;7.672;2023-11-19T09:54:10;16.27;;;15.73;;
6121;SDS011;3091;51.506;7.672;2023-11-19T09:56:38;17.60;;;16.90;;
6121;SDS011;3091;51.506;7.672;2023-11-19T09:59:05;16.97;;;16.00;;
6121;SDS011;3091;51.506;7.672;2023-11-19T10:01:31;16.97;;;16.27;;
6121;SDS011;3091;51.506;7.672;2023-11-19T10:03:57;17.07;;;15.70;;
6121;SDS011;3091;51.506;7.672;2023-11-19T10:06:24;16.00;;;15.40;;
6121;SDS011;3091;51.506;7.672;2023-11-19T10:08:52;16.20;;;15.60;;
6121;SDS011;3091;51.506;7.672;2023-11-19T10:11:18;18.00;;;16.90;;
6121;SDS011;3091;51.506;7.672;2023-11-19T10:13:44;15.43;;;14.93;;
6121;SDS011;3091;51.506;7.672;2023-11-19T10:16:12;15.47;;;14.80;;
6121;SDS011;3091;51.506;7.672;2023-11-19T10:21:32;15.17;;;14.53;;
6121;SDS011;3091;51.506;7.672;2023-11-19T10:23:59;17.30;;;16.60;;
6121;SDS011;3091;51.506;7.672;2023-11-19T10:26:43;16.90;;;16.30;;
6121;SDS011;3091;51.506;7.672;2023-11-19T10:29:09;18.23;;;17.10;;
6121;SDS011;3091;51.506;7.672;2023-11-19T10:31:39;18.97;;;17.73;;
6121;SDS011;3091;51.506;7.672;2023-11-19T10:34:06;17.07;;;16.27;;
6121;SDS011;3091;51.506;7.672;2023-11-19T10:36:50;15.90;;;15.40;;
6121;SDS011;3091;51.506;7.672;2023-11-19T10:39:16;18.10;;;17.30;;
6121;SDS011;3091;51.506;7.672;2023-11-19T10:41:42;27.10;;;17.40;;
6121;SDS011;3091;51.506;7.672;2023-11-19T10:44:11;19.60;;;17.83;;
6121;SDS011;3091;51.506;7.672;2023-11-19T10:46:40;18.77;;;18.07;;
6121;SDS011;3091;51.506;7.672;2023-11-19T10:49:07;17.10;;;16.27;;
6121;SDS011;3091;51.506;7.672;2023-11-19T10:51:33;19.00;;;18.00;;
6121;SDS011;3091;51.506;7.672;2023-11-19T10:54:03;17.70;;;16.80;;
6121;SDS011;3091;51.506;7.672;2023-11-19T10:56:33;17.67;;;17.07;;
6121;SDS011;3091;51.506;7.672;2023-11-19T10:58:59;16.50;;;16.00;;
6121;SDS011;3091;51.506;7.672;2023-11-19T11:01:26;19.10;;;18.20;;
6121;SDS011;3091;51.506;7.672;2023-11-19T11:03:56;17.20;;;16.50;;
6121;SDS011;3091;51.506;7.672;2023-11-19T11:06:27;18.23;;;17.43;;
6121;SDS011;3091;51.506;7.672;2023-11-19T11:08:54;17.87;;;16.90;;
6121;SDS011;3091;51.506;7.672;2023-11-19T11:11:20;19.13;;;18.03;;
6121;SDS011;3091;51.506;7.672;2023-11-19T11:13:48;18.60;;;17.23;;
6121;SDS011;3091;51.506;7.672;2023-11-19T11:16:19;17.03;;;16.10;;
6121;SDS011;3091;51.506;7.672;2023-11-19T11:18:46;18.73;;;17.50;;
6121;SDS011;3091;51.506;7.672;2023-11-19T11:21:15;18.40;;;17.50;;
6121;SDS011;3091;51.506;7.672;2023-11-19T11:29:10;17.17;;;16.47;;
6121;SDS011;3091;51.506;7.672;2023-11-19T11:34:29;17.70;;;16.70;;
6121;SDS011;3091;51.506;7.672;2023-11-19T11:39:32;14.87;;;14.37;;
6121;SDS011;3091;51.506;7.672;2023-11-19T11:50:19;16.20;;;15.60;;
6121;SDS011;3091;51.506;7.672;2023-11-19T11:55:26;16.40;;;15.40;;
6121;SDS011;3091;51.506;7.672;2023-11-19T11:57:53;16.67;;;15.97;;
6121;SDS011;3091;51.506;7.672;2023-11-19T12:00:36;17.57;;;16.50;;
6121;SDS011;3091;51.506;7.672;2023-11-19T12:03:04;16.57;;;15.87;;
6121;SDS011;3091;51.506;7.672;2023-11-19T12:05:30;16.00;;;15.40;;
6121;SDS011;3091;51.506;7.672;2023-11-19T12:08:05;19.57;;;18.30;;
6121;SDS011;3091;51.506;7.672;2023-11-19T12:10:36;18.20;;;17.30;;
6121;SDS011;3091;51.506;7.672;2023-11-19T12:13:04;16.97;;;16.37;;
6121;SDS011;3091;51.506;7.672;2023-11-19T12:15:33;21.23;;;16.40;;
6121;SDS011;3091;51.506;7.672;2023-11-19T12:18:19;17.77;;;16.97;;
6121;SDS011;3091;51.506;7.672;2023-11-19T12:20:45;15.90;;;15.40;;
6121;SDS011;3091;51.506;7.672;2023-11-19T12:23:11;15.40;;;14.90;;
6121;SDS011;3091;51.506;7.672;2023-11-19T12:25:37;15.80;;;15.30;;
6121;SDS011;3091;51.506;7.672;2023-11-19T12:28:03;18.17;;;17.07;;
6121;SDS011;3091;51.506;7.672;2023-11-19T12:30:29;17.10;;;16.20;;
6121;SDS011;3091;51.506;7.672;2023-11-19T12:32:55;15.80;;;15.20;;
6121;SDS011;3091;51.506;7.672;2023-11-19T12:35:22;18.10;;;16.37;;
6121;SDS011;3091;51.506;7.672;2023-11-19T12:37:52;16.13;;;15.50;;
6121;SDS011;3091;51.506;7.672;2023-11-19T12:40:19;15.77;;;15.17;;
6121;SDS011;3091;51.506;7.672;2023-11-19T12:42:45;17.03;;;16.43;;
6121;SDS011;3091;51.506;7.672;2023-11-19T12:45:12;16.90;;;16.20;;
6121;SDS011;3091;51.506;7.672;2023-11-19T12:47:41;30.87;;;17.80;;
6121;SDS011;3091;51.506;7.672;2023-11-19T12:50:08;16.87;;;16.03;;
6121;SDS011;3091;51.506;7.672;2023-11-19T12:52:35;18.87;;;17.87;;
6121;SDS011;3091;51.506;7.672;2023-11-19T12:55:01;16.53;;;16.03;;
6121;SDS011;3091;51.506;7.672;2023-11-19T13:00:03;16.10;;;15.60;;
6121;SDS011;3091;51.506;7.672;2023-11-19T13:02:46;16.70;;;16.03;;
6121;SDS011;3091;51.506;7.672;2023-11-19T13:05:33;17.33;;;16.63;;
6121;SDS011;3091;51.506;7.672;2023-11-19T13:08:05;16.73;;;15.87;;
6121;SDS011;3091;51.506;7.672;2023-11-19T13:10:32;17.23;;;16.63;;
6121;SDS011;3091;51.506;7.672;2023-11-19T13:13:00;22.97;;;21.43;;
6121;SDS011;3091;51.506;7.672;2023-11-19T13:15:26;18.10;;;17.17;;
6121;SDS011;3091;51.506;7.672;2023-11-19T13:17:52;17.10;;;16.50;;
6121;SDS011;3091;51.506;7.672;2023-11-19T13:20:18;18.40;;;17.70;;
6121;SDS011;3091;51.506;7.672;2023-11-19T13:22:59;16.53;;;16.03;;
6121;SDS011;3091;51.506;7.672;2023-11-19T13:25:28;25.03;;;24.07;;
6121;SDS011;3091;51.506;7.672;2023-11-19T13:27:54;56.10;;;53.30;;
6121;SDS011;3091;51.506;7.672;2023-11-19T13:30:21;77.90;;;74.30;;
6121;SDS011;3091;51.506;7.672;2023-11-19T13:32:48;120.40;;;115.30;;
6121;SDS011;3091;51.506;7.672;2023-11-19T13:35:14;134.73;;;129.33;;
6121;SDS011;3091;51.506;7.672;2023-11-19T13:37:40;136.80;;;131.00;;
6121;SDS011;3091;51.506;7.672;2023-11-19T13:40:07;136.47;;;130.77;;
6121;SDS011;3091;51.506;7.672;2023-11-19T13:42:35;126.40;;;121.20;;
6121;SDS011;3091;51.506;7.672;2023-11-19T13:45:01;120.00;;;114.80;;
6121;SDS011;3091;51.506;7.672;2023-11-19T13:47:28;113.40;;;108.50;;
6121;SDS011;3091;51.506;7.672;2023-11-19T13:49:54;101.77;;;97.37;;
6121;SDS011;3091;51.506;7.672;2023-11-19T13:52:20;99.67;;;95.37;;
6121;SDS011;3091;51.506;7.672;2023-11-19T13:54:46;87.30;;;83.37;;
6121;SDS011;3091;51.506;7.672;2023-11-19T13:57:12;81.97;;;77.90;;
6121;SDS011;3091;51.506;7.672;2023-11-19T13:59:41;74.50;;;71.10;;
6121;SDS011;3091;51.506;7.672;2023-11-19T14:02:07;61.50;;;58.50;;
6121;SDS011;3091;51.506;7.672;2023-11-19T14:04:33;60.63;;;57.23;;
6121;SDS011;3091;51.506;7.672;2023-11-19T14:06:59;50.37;;;47.87;;
6121;SDS011;3091;51.506;7.672;2023-11-19T14:09:25;46.70;;;44.40;;
6121;SDS011;3091;51.506;7.672;2023-11-19T14:11:51;45.50;;;43.50;;
6121;SDS011;3091;51.506;7.672;2023-11-19T14:14:18;40.40;;;38.60;;
6121;SDS011;3091;51.506;7.672;2023-11-19T14:16:44;35.47;;;33.77;;
6121;SDS011;3091;51.506;7.672;2023-11-19T14:19:11;33.50;;;31.70;;
6121;SDS011;3091;51.506;7.672;2023-11-19T14:21:37;29.60;;;28.20;;
6121;SDS011;3091;51.506;7.672;2023-11-19T14:24:03;25.83;;;24.73;;
6121;SDS011;3091;51.506;7.672;2023-11-19T14:26:29;22.00;;;21.00;;
6121;SDS011;3091;51.506;7.672;2023-11-19T14:28:55;20.10;;;19.00;;
6121;SDS011;3091;51.506;7.672;2023-11-19T14:31:21;19.70;;;18.73;;
6121;SDS011;3091;51.506;7.672;2023-11-19T14:33:47;20.50;;;19.70;;
6121;SDS011;3091;51.506;7.672;2023-11-19T14:36:14;19.23;;;18.37;;
6121;SDS011;3091;51.506;7.672;2023-11-19T14:38:43;19.73;;;18.93;;
6121;SDS011;3091;51.506;7.672;2023-11-19T14:41:09;19.43;;;18.37;;
6121;SDS011;3091;51.506;7.672;2023-11-19T14:43:35;18.50;;;17.80;;
6121;SDS011;3091;51.506;7.672;2023-11-19T14:46:01;19.20;;;17.90;;
6121;SDS011;3091;51.506;7.672;2023-11-19T14:48:28;18.10;;;17.40;;
6121;SDS011;3091;51.506;7.672;2023-11-19T14:50:54;18.20;;;17.43;;
6121;SDS011;3091;51.506;7.672;2023-11-19T14:53:20;18.47;;;17.77;;
6121;SDS011;3091;51.506;7.672;2023-11-19T14:55:47;20.27;;;19.27;;
6121;SDS011;3091;51.506;7.672;2023-11-19T14:58:13;17.57;;;16.87;;
6121;SDS011;3091;51.506;7.672;2023-11-19T15:00:39;26.20;;;24.37;;
6121;SDS011;3091;51.506;7.672;2023-11-19T15:03:05;43.93;;;41.60;;
6121;SDS011;3091;51.506;7.672;2023-11-19T15:05:33;45.57;;;43.47;;
6121;SDS011;3091;51.506;7.672;2023-11-19T15:08:00;35.30;;;33.70;;
6121;SDS011;3091;51.506;7.672;2023-11-19T15:10:26;25.23;;;24.13;;
6121;SDS011;3091;51.506;7.672;2023-11-19T15:12:52;22.43;;;21.20;;
6121;SDS011;3091;51.506;7.672;2023-11-19T15:15:19;21.80;;;20.80;;